SBOSBO LUX / ELLX
Speedbird OnlineSpeedbird Online LUX / ELLX

Luxembourg-Findel International Airport
22:42 11.7°C

Location Luxemburg, Luxembourg
Latitude: 49.6233333
Longitude: 6.2044444
Web Airport Website | Wikipedia
Altitude 376 Meter / 1234 Feet
Distance 478 KM / 297 Miles
from London.
Time Zone UTC +2 hours (Europe/Luxembourg)
Codes IATA: LUX
ICAO: ELLX
Currency £1 equals EUR 1.12
Runways
RunwayLength (m)Surface
064002ASPHALT
244002ASPHALT
Radio
TypeDescriptionFrequency
APPLuxembourg Approach120.885
ATISATIS134.755
TWRLuxembourg Tower118.105
VDFHomer118.105
Live ATC
METAR ELLX 242020Z 34005KT 9999 BKN042 12/10 Q1013 NOSIG
TAF TAF ELLX 241700Z 2418/2524 01005KT 9999 BKN035 PROB40 TEMPO 2422/2506 3000 BR BKN006 BECMG 2516/2518 32005KT
Weather As Of 24 Sep 2022 22:42
Description Broken clouds
Wind 9 km/h from North (340°)
Cloud Cover 75%
Precipitation Rain: none, Snow: none
Sunrise 07:24
Sunset 19:30
Lounges The Lounge by Luxair, Terminal A
Rotations During the last 90 days there were
121 flights from LCY
50 flights from LHR
1 flights from BRU
116 flights to LCY
50 flights to LHR


© 2017-2022 Speedbird Online